Terminal Aerodrome Forecast
Issued by NWS Albany, NY

Home | Current Version | Previous Version | Text Only | Print | Product List | Glossary On
Versions: 1 2 3 4 5 6 7 8 9 10 11 12 13 14 15 16 17 18 19 20 21 22 23 24 25 26 27
352
FTUS41 KALY 251736
TAFGFL
TAF
KGFL 251736Z 2518/2618 19016G27KT P6SM BKN035
     FM252200 20015G25KT 2SM RA BR BKN015 OVC030
      TEMPO 2522/2524 VRB25G40KT 1SM +TSRA BR BKN009 OVC015CB
     FM260100 25010G17KT 2SM RASN BR OVC009
     FM260300 26010KT P6SM VCSH OVC020
     FM260500 26011KT P6SM OVC035
     FM261400 28015G25KT P6SM BKN045=

USA.gov is the U.S. government's official web portal to all federal, state and local government web resources and services.